Flight Track Log - Related Links

Times and Time Zones

All times are in EDT time to prevent confusion due to time zone crossing. See the TAM3753 flight status page for this flight to view local times or setup timezone preferences in your user account.

Time Position Orientation Groundspeed Altitude Reporting Facility
EDT Latitude Longitude Course Direction KTS MPH feet Rate Location/Type
Wed 06:23:00 AM -20.7863 -43.6896 167° South  Level Estimated
Wed 06:24:00 AM -20.8439 -43.6755 167° South  Level Estimated
Wed 06:25:00 AM -20.9016 -43.6614 167° South  Level Estimated
Wed 06:26:00 AM -20.9592 -43.6474 167° South  Level Estimated
Wed 06:27:00 AM -21.0168 -43.6333 167° South  Level Estimated
Wed 06:28:00 AM -21.0744 -43.6191 167° South  Level Estimated
Wed 06:29:00 AM -21.1320 -43.6050 167° South  Level Estimated
Wed 06:30:00 AM -21.1896 -43.5909 167° South  Level Estimated
Wed 06:31:00 AM -21.2472 -43.5767 167° South  Level Estimated
Wed 06:32:00 AM -21.3048 -43.5625 167° South  Level Estimated
Wed 06:33:00 AM -21.3624 -43.5484 167° South  Level Estimated
Wed 06:34:00 AM -21.4200 -43.5342 167° South  Level Estimated
Wed 06:35:00 AM -21.4776 -43.5200 167° South  Level Estimated
Wed 06:36:00 AM -21.5352 -43.5058 167° South  Level Estimated
Wed 06:37:00 AM -21.5928 -43.4916 167° South  Level Estimated
Wed 06:38:00 AM -21.6504 -43.4774 167° South  Level Estimated
Wed 06:39:00 AM -21.7080 -43.4631 167° South  Level Estimated
Wed 06:40:00 AM -21.7656 -43.4489 167° South  Level Estimated
Wed 06:41:00 AM -21.8232 -43.4346 167° South  Level Estimated
Wed 06:42:00 AM -21.8808 -43.4203 167° South  Level Estimated
Wed 06:43:00 AM -21.9384 -43.4061 167° South  Level Estimated
Wed 06:44:00 AM -21.9960 -43.3918 167° South  Level Estimated
Wed 06:45:00 AM -22.0536 -43.3774 167° South  Level Estimated
Wed 06:46:00 AM -22.1112 -43.3631 167° South  Level Estimated
Wed 06:47:00 AM -22.1688 -43.3488 167° South  Level Estimated
Wed 06:48:00 AM -22.2264 -43.3345 167° South  Level Estimated
Wed 06:49:00 AM -22.2840 -43.3201 167° South  Level Estimated
Wed 06:50:00 AM -22.3415 -43.3057 167° South  Level Estimated
Wed 06:51:00 AM -22.3991 -43.2914 167° South  Level Estimated
Wed 06:52:00 AM -22.4567 -43.2770 167° South  Level Estimated
Wed 06:53:00 AM -22.5143 -43.2626 167° South  Level Estimated
Wed 06:54:00 AM -22.5719 -43.2481 167° South  Level Estimated
Wed 06:55:00 AM -22.6294 -43.2337 167° South  Level Estimated
Wed 06:56:00 AM -22.6870 -43.2193 167° South  Level Estimated
Wed 06:57:00 AM -22.7446 -43.2048 167° South  Level Estimated
Wed 06:58:00 AM -22.8022 -43.1904 167° South  Level Estimated
Wed 06:59:00 AM -22.8597 -43.1759 167° South  Level Estimated
Wed 07:00:00 AM -22.9105 -43.1631 167° South  Level Estimated
Wed 07:01:00 AM -22.9105 -43.1631 250° West  Level Estimated
Wed 07:02:00 AM -22.9105 -43.1631 250° West  Level Estimated
Wed 07:03:00 AM -22.9105 -43.1631 250° West  Level Estimated
Wed 07:04:00 AM -22.9105 -43.1631 250° West  Level Estimated
Wed 07:05:00 AM -22.9105 -43.1631 250° West  Level Estimated
Wed 07:06:00 AM -22.9105 -43.1631 250° West  Level Estimated
Wed 07:07:00 AM -22.9105 -43.1631 250° West  Level Estimated
Wed 07:08:00 AM -22.9105 -43.1631 250° West  Level Estimated
Wed 07:09:00 AM -22.9105 -43.1631 250° West  Level Estimated
Wed 07:10:00 AM -22.9105 -43.1631 250° West  Level Estimated
Wed 07:11:00 AM -22.9105 -43.1631 250° West  Level Estimated
Wed 07:12:00 AM -22.9105 -43.1631 250° West  Level Estimated
Wed 07:13:00 AM -22.9105 -43.1631 250° West  Level Estimated
Wed 07:14:00 AM -22.9105 -43.1631 250° West  Level Estimated
Wed 07:15:00 AM -22.9105 -43.1631 250° West  Level Estimated
Wed 07:16:00 AM -22.9105 -43.1631 250° West  Level Estimated

Login

Don't have an account? Register now (free) for customized features, flight alerts, and more!